createdAt,value
2022-09-15T00:02:14.206Z,55.65
2022-09-15T00:07:17.273Z,58.06
2022-09-15T00:12:19.887Z,60.79
2022-09-15T00:17:22.794Z,68.80
2022-09-15T00:22:26.391Z,62.29
2022-09-15T00:27:28.972Z,56.74
2022-09-15T00:32:31.899Z,56.80
2022-09-15T00:37:34.489Z,59.18
2022-09-15T00:42:38.228Z,60.73
2022-09-15T00:47:40.912Z,67.47
2022-09-15T00:52:52.990Z,63.44
2022-09-15T00:58:14.514Z,56.88
2022-09-15T01:03:18.274Z,58.32
2022-09-15T01:08:29.810Z,60.95
2022-09-15T01:13:33.120Z,66.77
2022-09-15T01:19:02.324Z,63.33
2022-09-15T01:24:23.427Z,57.42
2022-09-15T01:29:55.251Z,58.38
2022-09-15T01:35:02.843Z,61.97
2022-09-15T01:40:07.093Z,66.78
2022-09-15T01:45:16.765Z,58.91
2022-09-15T01:50:22.575Z,58.70
2022-09-15T01:55:29.712Z,64.26
2022-09-15T02:00:34.500Z,64.48
2022-09-15T02:05:42.817Z,59.56
2022-09-15T02:11:01.289Z,57.17
2022-09-15T02:16:05.117Z,60.88
2022-09-15T02:21:23.991Z,65.21
2022-09-15T02:26:28.946Z,62.80
2022-09-15T02:31:33.320Z,59.26
2022-09-15T02:36:36.393Z,56.93
2022-09-15T02:41:39.719Z,61.08
2022-09-15T02:46:42.700Z,64.93
2022-09-15T02:51:45.314Z,62.46
2022-09-15T02:56:47.887Z,58.28
2022-09-15T03:01:52.084Z,58.69
2022-09-15T03:06:54.786Z,64.58
2022-09-15T03:11:57.442Z,62.89
2022-09-15T03:17:00.392Z,59.29
2022-09-15T03:22:03.382Z,60.77
2022-09-15T03:27:06.161Z,66.59
2022-09-15T03:32:08.665Z,60.88
2022-09-15T03:37:11.862Z,59.08
2022-09-15T03:42:14.767Z,63.77
2022-09-15T03:47:17.514Z,62.83
2022-09-15T03:52:20.023Z,58.96
2022-09-15T03:57:22.545Z,60.58
2022-09-15T04:02:25.197Z,66.37
2022-09-15T04:07:27.841Z,65.13
2022-09-15T04:12:32.704Z,60.78
2022-09-15T04:17:35.765Z,58.22
2022-09-15T04:22:38.509Z,62.43
2022-09-15T04:27:41.209Z,65.70
2022-09-15T04:32:43.738Z,62.23
2022-09-15T04:37:46.482Z,59.06
2022-09-15T04:42:49.036Z,63.45
2022-09-15T04:47:53.483Z,66.43
2022-09-15T04:52:56.124Z,63.17
2022-09-15T04:57:58.740Z,59.89
2022-09-15T05:03:01.323Z,61.65
2022-09-15T05:08:04.259Z,63.52
2022-09-15T05:13:06.943Z,60.83
2022-09-15T05:18:09.481Z,59.57
2022-09-15T05:23:12.234Z,65.18
2022-09-15T05:28:14.854Z,63.07
2022-09-15T05:33:18.048Z,60.21
2022-09-15T05:38:20.743Z,58.52
2022-09-15T05:43:23.271Z,63.11
2022-09-15T05:48:26.179Z,63.62
2022-09-15T05:53:29.252Z,60.67
2022-09-15T05:58:32.472Z,59.32
2022-09-15T06:03:35.985Z,58.87
2022-09-15T06:08:48.225Z,60.22
2022-09-15T06:13:51.723Z,56.48
2022-09-15T06:18:54.361Z,57.22
2022-09-15T06:23:58.919Z,58.18
2022-09-15T06:29:03.010Z,55.24
2022-09-15T06:34:11.843Z,53.05
2022-09-15T06:39:14.412Z,54.83
2022-09-15T06:44:17.570Z,51.58
2022-09-15T06:49:20.871Z,47.77
2022-09-15T06:54:23.492Z,48.81
2022-09-15T06:59:26.259Z,49.37
2022-09-15T07:04:37.154Z,48.41
2022-09-15T07:09:41.352Z,48.42
2022-09-15T07:14:44.397Z,45.49
2022-09-15T07:19:46.973Z,45.59
2022-09-15T07:24:49.550Z,43.50
2022-09-15T07:29:52.390Z,43.90
2022-09-15T07:34:58.254Z,43.58
2022-09-15T07:40:01.553Z,42.57
2022-09-15T07:45:05.256Z,40.07
2022-09-15T07:50:08.592Z,39.59
2022-09-15T07:55:11.415Z,39.60
2022-09-15T08:00:15.577Z,38.78
2022-09-15T08:05:18.407Z,37.25
2022-09-15T08:10:21.467Z,37.20
2022-09-15T08:15:24.621Z,35.07
2022-09-15T08:20:27.271Z,34.54
2022-09-15T08:25:30.586Z,32.21
2022-09-15T08:30:33.120Z,31.23
2022-09-15T08:35:37.045Z,32.81
2022-09-15T08:40:44.054Z,35.31
2022-09-15T08:45:53.569Z,37.92
2022-09-15T08:50:58.788Z,39.79
2022-09-15T08:56:09.319Z,41.84
2022-09-15T09:01:31.369Z,43.18
2022-09-15T09:06:34.063Z,43.02
2022-09-15T09:11:36.608Z,38.89
2022-09-15T09:16:41.961Z,37.35
2022-09-15T09:21:48.285Z,37.60
2022-09-15T09:26:54.556Z,38.40
2022-09-15T09:31:58.630Z,41.09
2022-09-15T09:37:08.798Z,40.48
2022-09-15T09:42:14.827Z,40.77
2022-09-15T09:47:18.174Z,40.56
2022-09-15T09:52:40.963Z,42.15
2022-09-15T09:57:43.866Z,44.16
2022-09-15T10:02:47.007Z,46.18
2022-09-15T10:07:49.667Z,47.44
2022-09-15T10:12:55.981Z,49.39
2022-09-15T10:17:58.578Z,50.94
2022-09-15T10:23:02.991Z,50.76
2022-09-15T10:28:08.412Z,51.33
2022-09-15T10:33:27.605Z,52.77
2022-09-15T10:38:30.094Z,53.99
2022-09-15T10:43:52.938Z,54.38
2022-09-15T10:49:15.988Z,55.35
2022-09-15T10:54:28.412Z,55.88
2022-09-15T10:59:44.394Z,56.37
2022-09-15T11:04:47.004Z,55.54
2022-09-15T11:10:09.832Z,53.28
2022-09-15T11:15:32.264Z,52.85
2022-09-15T11:20:59.139Z,53.56
2022-09-15T11:26:06.531Z,55.10
2022-09-15T11:31:24.554Z,56.16
2022-09-15T11:36:30.777Z,55.54
2022-09-15T11:41:41.975Z,54.67
2022-09-15T11:46:53.745Z,54.57
2022-09-15T11:51:59.074Z,54.41
2022-09-15T11:57:02.218Z,53.80
2022-09-15T12:02:17.350Z,52.18
2022-09-15T12:07:23.970Z,49.42
2022-09-15T12:12:30.635Z,48.36
2022-09-15T12:17:40.421Z,45.92
2022-09-15T12:22:47.033Z,45.70
2022-09-15T12:28:08.394Z,43.98
2022-09-15T12:33:29.574Z,41.93
2022-09-15T12:38:32.167Z,40.34
2022-09-15T12:43:34.893Z,37.52
2022-09-15T12:48:38.096Z,37.27
2022-09-15T12:53:49.754Z,36.80
2022-09-15T12:58:53.305Z,35.83
2022-09-15T13:03:59.355Z,35.58
2022-09-15T13:09:02.309Z,34.75
2022-09-15T13:14:07.622Z,35.07
2022-09-15T13:19:12.610Z,36.05
2022-09-15T13:24:21.644Z,38.74
2022-09-15T13:29:24.644Z,37.62
2022-09-15T13:35:10.036Z,35.08
2022-09-15T13:40:34.520Z,35.44
2022-09-15T13:45:40.279Z,34.19
2022-09-15T13:50:51.553Z,31.90
2022-09-15T13:55:58.441Z,31.46
2022-09-15T14:01:03.411Z,33.20
2022-09-15T14:06:26.436Z,34.37
2022-09-15T14:11:30.854Z,36.42
2022-09-15T14:16:34.987Z,36.36
2022-09-15T14:21:47.768Z,35.31
2022-09-15T14:26:50.466Z,38.89
2022-09-15T14:31:54.223Z,42.28
2022-09-15T14:37:07.664Z,44.28
2022-09-15T14:42:30.711Z,46.45
2022-09-15T14:47:33.625Z,48.41
2022-09-15T14:52:39.303Z,50.24
2022-09-15T14:57:46.400Z,51.70
2022-09-15T15:03:14.748Z,52.08
2022-09-15T15:08:30.299Z,52.22
2022-09-15T15:13:33.305Z,52.73
2022-09-15T15:18:35.904Z,53.17
2022-09-15T15:23:46.874Z,53.43
2022-09-15T15:28:49.776Z,53.37
2022-09-15T15:34:00.390Z,53.57
2022-09-15T15:39:05.278Z,53.52
2022-09-15T15:44:25.895Z,53.50
2022-09-15T15:49:29.813Z,53.45
2022-09-15T15:54:33.662Z,53.36
2022-09-15T15:59:36.192Z,53.29
2022-09-15T16:04:38.804Z,53.50
2022-09-15T16:09:41.400Z,53.46
2022-09-15T16:14:44.100Z,53.54
2022-09-15T16:19:47.363Z,53.74
2022-09-15T16:24:50.116Z,53.93
2022-09-15T16:29:53.153Z,53.99
2022-09-15T16:34:55.726Z,54.13
2022-09-15T16:39:58.280Z,54.32
2022-09-15T16:45:01.958Z,54.55
2022-09-15T16:50:04.859Z,54.60
2022-09-15T16:55:17.372Z,54.45
2022-09-15T17:00:20.000Z,55.07
2022-09-15T17:05:31.153Z,55.17
2022-09-15T17:10:34.637Z,55.81
2022-09-15T17:15:38.755Z,56.10
2022-09-15T17:20:42.531Z,56.69
2022-09-15T17:25:51.784Z,56.39
2022-09-15T17:30:58.837Z,56.14
2022-09-15T17:36:01.560Z,56.01
2022-09-15T17:41:04.409Z,55.82
2022-09-15T17:46:07.964Z,56.09
2022-09-15T17:51:14.304Z,56.46
2022-09-15T17:56:17.049Z,56.61
2022-09-15T18:01:20.585Z,56.88
2022-09-15T18:06:23.141Z,57.49
2022-09-15T18:11:27.263Z,57.98
2022-09-15T18:16:30.246Z,59.25
2022-09-15T18:21:32.855Z,59.25
2022-09-15T18:26:35.776Z,59.44
2022-09-15T18:31:38.464Z,60.92
2022-09-15T18:36:41.250Z,61.03
2022-09-15T18:41:43.846Z,65.07
2022-09-15T18:46:46.462Z,55.99
2022-09-15T18:51:52.356Z,56.71
2022-09-15T18:56:55.131Z,57.25
2022-09-15T19:01:57.748Z,59.63
2022-09-15T19:07:00.531Z,64.85
2022-09-15T19:12:03.916Z,59.50
2022-09-15T19:17:06.581Z,54.41
2022-09-15T19:22:09.697Z,57.87
2022-09-15T19:27:12.275Z,60.82
2022-09-15T19:32:18.169Z,64.76
2022-09-15T19:37:21.951Z,60.73
2022-09-15T19:42:24.520Z,57.28
2022-09-15T19:47:27.145Z,59.89
2022-09-15T19:52:29.742Z,61.98
2022-09-15T19:57:32.521Z,64.52
2022-09-15T20:02:35.169Z,60.26
2022-09-15T20:07:37.840Z,55.79
2022-09-15T20:12:40.591Z,59.99
2022-09-15T20:17:43.235Z,63.93
2022-09-15T20:22:46.411Z,63.03
2022-09-15T20:27:49.595Z,57.77
2022-09-15T20:32:52.192Z,59.37
2022-09-15T20:37:54.808Z,63.86
2022-09-15T20:42:58.069Z,64.46
2022-09-15T20:48:00.660Z,59.64
2022-09-15T20:53:03.265Z,59.78
2022-09-15T20:58:08.112Z,62.86
2022-09-15T21:03:10.711Z,58.95
2022-09-15T21:08:13.549Z,56.60
2022-09-15T21:13:16.307Z,60.89
2022-09-15T21:18:19.732Z,65.16
2022-09-15T21:23:22.452Z,61.07
2022-09-15T21:28:25.190Z,58.94
2022-09-15T21:33:28.852Z,63.00
2022-09-15T21:38:31.554Z,60.70
2022-09-15T21:43:36.202Z,59.82
2022-09-15T21:48:38.899Z,63.42
2022-09-15T21:53:42.627Z,58.21
2022-09-15T21:58:45.242Z,60.28
2022-09-15T22:03:49.460Z,65.41
2022-09-15T22:08:52.053Z,61.60
2022-09-15T22:13:55.876Z,57.83
2022-09-15T22:18:59.970Z,61.29
2022-09-15T22:24:04.655Z,64.95
2022-09-15T22:29:07.275Z,58.39
2022-09-15T22:34:09.950Z,58.81
2022-09-15T22:39:12.890Z,63.70
2022-09-15T22:44:19.814Z,62.95
2022-09-15T22:49:22.656Z,57.05
2022-09-15T22:54:25.202Z,60.92
2022-09-15T22:59:27.911Z,64.78
2022-09-15T23:04:30.656Z,59.27
2022-09-15T23:09:33.351Z,59.26
2022-09-15T23:14:37.075Z,64.88
2022-09-15T23:19:40.269Z,65.28
2022-09-15T23:24:42.883Z,59.57
2022-09-15T23:29:45.583Z,58.94
2022-09-15T23:34:49.014Z,66.13
2022-09-15T23:39:52.565Z,61.38
2022-09-15T23:44:55.218Z,62.41
2022-09-15T23:49:57.820Z,62.80
2022-09-15T23:55:00.345Z,60.22
